sensor_id;sensor_type;location;lat;lon;timestamp;P1;durP1;ratioP1;P2;durP2;ratioP2
8675;SDS011;4375;52.486;13.424;2023-02-05T00:01:09;19.70;;;5.30;;
8675;SDS011;4375;52.486;13.424;2023-02-05T00:03:35;23.30;;;5.90;;
8675;SDS011;4375;52.486;13.424;2023-02-05T00:06:02;19.98;;;5.55;;
8675;SDS011;4375;52.486;13.424;2023-02-05T00:08:27;20.73;;;4.83;;
8675;SDS011;4375;52.486;13.424;2023-02-05T00:10:54;18.63;;;5.20;;
8675;SDS011;4375;52.486;13.424;2023-02-05T00:13:20;20.27;;;4.37;;
8675;SDS011;4375;52.486;13.424;2023-02-05T00:15:45;18.30;;;4.60;;
8675;SDS011;4375;52.486;13.424;2023-02-05T00:18:11;17.20;;;4.63;;
8675;SDS011;4375;52.486;13.424;2023-02-05T00:20:37;18.67;;;4.30;;
8675;SDS011;4375;52.486;13.424;2023-02-05T00:23:03;17.43;;;4.03;;
8675;SDS011;4375;52.486;13.424;2023-02-05T00:25:29;21.80;;;4.30;;
8675;SDS011;4375;52.486;13.424;2023-02-05T00:27:55;18.58;;;3.70;;
8675;SDS011;4375;52.486;13.424;2023-02-05T00:30:21;17.37;;;4.10;;
8675;SDS011;4375;52.486;13.424;2023-02-05T00:32:46;16.37;;;3.93;;
8675;SDS011;4375;52.486;13.424;2023-02-05T00:35:12;17.40;;;4.13;;
8675;SDS011;4375;52.486;13.424;2023-02-05T00:37:38;20.73;;;4.60;;
8675;SDS011;4375;52.486;13.424;2023-02-05T00:40:03;24.43;;;5.07;;
8675;SDS011;4375;52.486;13.424;2023-02-05T00:42:29;21.92;;;5.20;;
8675;SDS011;4375;52.486;13.424;2023-02-05T00:44:55;19.13;;;5.10;;
8675;SDS011;4375;52.486;13.424;2023-02-05T00:47:21;22.58;;;5.05;;
8675;SDS011;4375;52.486;13.424;2023-02-05T00:49:47;23.00;;;5.67;;
8675;SDS011;4375;52.486;13.424;2023-02-05T00:52:12;18.40;;;4.90;;
8675;SDS011;4375;52.486;13.424;2023-02-05T00:54:38;18.27;;;4.90;;
8675;SDS011;4375;52.486;13.424;2023-02-05T00:57:04;17.33;;;5.17;;
8675;SDS011;4375;52.486;13.424;2023-02-05T00:59:29;18.33;;;5.00;;
8675;SDS011;4375;52.486;13.424;2023-02-05T01:01:55;19.30;;;5.03;;
8675;SDS011;4375;52.486;13.424;2023-02-05T01:04:20;17.53;;;5.00;;
8675;SDS011;4375;52.486;13.424;2023-02-05T01:06:46;19.20;;;4.50;;
8675;SDS011;4375;52.486;13.424;2023-02-05T01:09:12;18.67;;;4.37;;
8675;SDS011;4375;52.486;13.424;2023-02-05T01:11:37;18.93;;;4.40;;
8675;SDS011;4375;52.486;13.424;2023-02-05T01:14:03;18.63;;;4.03;;
8675;SDS011;4375;52.486;13.424;2023-02-05T01:16:29;19.40;;;3.93;;
8675;SDS011;4375;52.486;13.424;2023-02-05T01:18:54;18.43;;;4.00;;
8675;SDS011;4375;52.486;13.424;2023-02-05T01:21:21;17.40;;;3.75;;
8675;SDS011;4375;52.486;13.424;2023-02-05T01:23:48;19.70;;;3.78;;
8675;SDS011;4375;52.486;13.424;2023-02-05T01:26:15;18.23;;;3.53;;
8675;SDS011;4375;52.486;13.424;2023-02-05T01:28:41;15.80;;;3.17;;
8675;SDS011;4375;52.486;13.424;2023-02-05T01:31:06;19.47;;;3.30;;
8675;SDS011;4375;52.486;13.424;2023-02-05T01:33:32;18.73;;;4.60;;
8675;SDS011;4375;52.486;13.424;2023-02-05T01:35:57;16.97;;;3.80;;
8675;SDS011;4375;52.486;13.424;2023-02-05T01:38:23;17.60;;;3.87;;
8675;SDS011;4375;52.486;13.424;2023-02-05T01:40:48;20.47;;;4.37;;
8675;SDS011;4375;52.486;13.424;2023-02-05T01:43:15;22.10;;;4.13;;
8675;SDS011;4375;52.486;13.424;2023-02-05T01:48:16;17.67;;;4.85;;
8675;SDS011;4375;52.486;13.424;2023-02-05T01:50:50;16.98;;;4.47;;
8675;SDS011;4375;52.486;13.424;2023-02-05T01:53:26;15.90;;;3.72;;
8675;SDS011;4375;52.486;13.424;2023-02-05T01:55:59;19.77;;;4.22;;
8675;SDS011;4375;52.486;13.424;2023-02-05T01:58:34;17.65;;;4.25;;
8675;SDS011;4375;52.486;13.424;2023-02-05T02:01:03;17.70;;;3.50;;
8675;SDS011;4375;52.486;13.424;2023-02-05T02:03:30;20.63;;;4.88;;
8675;SDS011;4375;52.486;13.424;2023-02-05T02:05:56;16.95;;;3.88;;
8675;SDS011;4375;52.486;13.424;2023-02-05T02:08:22;18.52;;;4.22;;
8675;SDS011;4375;52.486;13.424;2023-02-05T02:10:49;20.70;;;5.03;;
8675;SDS011;4375;52.486;13.424;2023-02-05T02:13:17;17.80;;;3.95;;
8675;SDS011;4375;52.486;13.424;2023-02-05T02:15:46;19.83;;;4.28;;
8675;SDS011;4375;52.486;13.424;2023-02-05T02:18:13;19.27;;;3.95;;
8675;SDS011;4375;52.486;13.424;2023-02-05T02:23:51;19.85;;;3.88;;
8675;SDS011;4375;52.486;13.424;2023-02-05T02:32:15;18.08;;;4.20;;
8675;SDS011;4375;52.486;13.424;2023-02-05T02:34:48;16.75;;;3.97;;
8675;SDS011;4375;52.486;13.424;2023-02-05T02:42:32;18.75;;;4.88;;
8675;SDS011;4375;52.486;13.424;2023-02-05T02:45:04;17.35;;;4.88;;
8675;SDS011;4375;52.486;13.424;2023-02-05T02:47:35;16.38;;;4.47;;
8675;SDS011;4375;52.486;13.424;2023-02-05T02:50:12;19.65;;;4.85;;
8675;SDS011;4375;52.486;13.424;2023-02-05T02:52:44;24.73;;;6.00;;
8675;SDS011;4375;52.486;13.424;2023-02-05T02:55:12;20.15;;;4.93;;
8675;SDS011;4375;52.486;13.424;2023-02-05T02:57:40;20.70;;;5.68;;
8675;SDS011;4375;52.486;13.424;2023-02-05T03:00:11;17.65;;;4.80;;
8675;SDS011;4375;52.486;13.424;2023-02-05T03:02:40;24.17;;;5.03;;
8675;SDS011;4375;52.486;13.424;2023-02-05T03:05:08;23.40;;;5.57;;
8675;SDS011;4375;52.486;13.424;2023-02-05T03:07:40;21.48;;;5.75;;
8675;SDS011;4375;52.486;13.424;2023-02-05T03:12:40;20.95;;;4.90;;
8675;SDS011;4375;52.486;13.424;2023-02-05T03:15:06;19.02;;;5.72;;
8675;SDS011;4375;52.486;13.424;2023-02-05T03:17:33;17.30;;;5.03;;
8675;SDS011;4375;52.486;13.424;2023-02-05T03:20:17;19.88;;;5.82;;
8675;SDS011;4375;52.486;13.424;2023-02-05T03:22:49;20.95;;;6.32;;
8675;SDS011;4375;52.486;13.424;2023-02-05T03:25:15;21.50;;;5.93;;
8675;SDS011;4375;52.486;13.424;2023-02-05T03:27:45;24.02;;;5.57;;
8675;SDS011;4375;52.486;13.424;2023-02-05T03:30:11;23.95;;;5.57;;
8675;SDS011;4375;52.486;13.424;2023-02-05T03:35:30;20.23;;;5.30;;
8675;SDS011;4375;52.486;13.424;2023-02-05T03:40:54;19.80;;;5.18;;
8675;SDS011;4375;52.486;13.424;2023-02-05T03:44:26;24.15;;;6.22;;
8675;SDS011;4375;52.486;13.424;2023-02-05T03:52:26;20.27;;;5.72;;
8675;SDS011;4375;52.486;13.424;2023-02-05T03:57:27;17.83;;;4.10;;
8675;SDS011;4375;52.486;13.424;2023-02-05T04:00:15;23.45;;;6.45;;
8675;SDS011;4375;52.486;13.424;2023-02-05T04:02:41;25.02;;;5.65;;
8675;SDS011;4375;52.486;13.424;2023-02-05T04:05:07;17.52;;;5.00;;
8675;SDS011;4375;52.486;13.424;2023-02-05T04:07:33;21.30;;;5.70;;
8675;SDS011;4375;52.486;13.424;2023-02-05T04:09:59;19.87;;;5.40;;
8675;SDS011;4375;52.486;13.424;2023-02-05T04:12:24;18.73;;;5.87;;
8675;SDS011;4375;52.486;13.424;2023-02-05T04:14:50;19.03;;;5.30;;
8675;SDS011;4375;52.486;13.424;2023-02-05T04:17:15;17.23;;;4.37;;
8675;SDS011;4375;52.486;13.424;2023-02-05T04:19:41;19.47;;;5.30;;
8675;SDS011;4375;52.486;13.424;2023-02-05T04:22:07;18.67;;;4.80;;
8675;SDS011;4375;52.486;13.424;2023-02-05T04:24:32;17.50;;;4.57;;
8675;SDS011;4375;52.486;13.424;2023-02-05T04:26:58;17.30;;;4.77;;
8675;SDS011;4375;52.486;13.424;2023-02-05T04:29:23;18.87;;;4.67;;
8675;SDS011;4375;52.486;13.424;2023-02-05T04:31:49;20.10;;;4.70;;
8675;SDS011;4375;52.486;13.424;2023-02-05T04:34:15;18.60;;;4.93;;
8675;SDS011;4375;52.486;13.424;2023-02-05T04:36:40;19.87;;;4.93;;
8675;SDS011;4375;52.486;13.424;2023-02-05T04:39:06;17.40;;;4.17;;
8675;SDS011;4375;52.486;13.424;2023-02-05T04:41:31;18.03;;;4.80;;
8675;SDS011;4375;52.486;13.424;2023-02-05T04:43:57;16.07;;;4.10;;
8675;SDS011;4375;52.486;13.424;2023-02-05T04:46:23;19.60;;;4.53;;
8675;SDS011;4375;52.486;13.424;2023-02-05T04:48:48;20.80;;;4.50;;
8675;SDS011;4375;52.486;13.424;2023-02-05T04:51:14;17.50;;;3.70;;
8675;SDS011;4375;52.486;13.424;2023-02-05T04:53:41;16.20;;;3.65;;
8675;SDS011;4375;52.486;13.424;2023-02-05T04:56:07;16.50;;;4.07;;
8675;SDS011;4375;52.486;13.424;2023-02-05T04:58:35;22.58;;;4.75;;
8675;SDS011;4375;52.486;13.424;2023-02-05T05:01:01;17.70;;;4.43;;
8675;SDS011;4375;52.486;13.424;2023-02-05T05:03:27;19.95;;;4.50;;
8675;SDS011;4375;52.486;13.424;2023-02-05T05:05:53;18.63;;;3.87;;
8675;SDS011;4375;52.486;13.424;2023-02-05T05:08:19;17.73;;;4.60;;
8675;SDS011;4375;52.486;13.424;2023-02-05T05:10:44;18.23;;;4.10;;
8675;SDS011;4375;52.486;13.424;2023-02-05T05:13:10;17.73;;;3.80;;
8675;SDS011;4375;52.486;13.424;2023-02-05T05:15:36;19.00;;;4.40;;
8675;SDS011;4375;52.486;13.424;2023-02-05T05:18:01;16.80;;;4.30;;
8675;SDS011;4375;52.486;13.424;2023-02-05T05:20:27;18.93;;;4.47;;
8675;SDS011;4375;52.486;13.424;2023-02-05T05:22:53;16.27;;;3.92;;
8675;SDS011;4375;52.486;13.424;2023-02-05T05:25:24;16.52;;;4.03;;
8675;SDS011;4375;52.486;13.424;2023-02-05T05:27:49;17.30;;;3.80;;
8675;SDS011;4375;52.486;13.424;2023-02-05T05:30:15;17.57;;;3.93;;
8675;SDS011;4375;52.486;13.424;2023-02-05T05:32:40;15.30;;;3.43;;
8675;SDS011;4375;52.486;13.424;2023-02-05T05:35:06;21.83;;;4.17;;
8675;SDS011;4375;52.486;13.424;2023-02-05T05:37:32;16.63;;;3.87;;
8675;SDS011;4375;52.486;13.424;2023-02-05T05:39:57;19.80;;;3.60;;
8675;SDS011;4375;52.486;13.424;2023-02-05T05:42:52;16.92;;;4.00;;
8675;SDS011;4375;52.486;13.424;2023-02-05T05:45:36;17.52;;;3.40;;
8675;SDS011;4375;52.486;13.424;2023-02-05T05:48:02;20.53;;;4.60;;
8675;SDS011;4375;52.486;13.424;2023-02-05T05:50:28;16.27;;;3.90;;
8675;SDS011;4375;52.486;13.424;2023-02-05T05:52:53;21.33;;;3.87;;
8675;SDS011;4375;52.486;13.424;2023-02-05T05:55:19;19.20;;;4.90;;
8675;SDS011;4375;52.486;13.424;2023-02-05T05:57:45;18.77;;;4.13;;
8675;SDS011;4375;52.486;13.424;2023-02-05T06:00:10;17.27;;;4.73;;
8675;SDS011;4375;52.486;13.424;2023-02-05T06:02:40;17.02;;;4.30;;
8675;SDS011;4375;52.486;13.424;2023-02-05T06:05:08;17.85;;;4.10;;
8675;SDS011;4375;52.486;13.424;2023-02-05T06:07:33;18.97;;;4.53;;
8675;SDS011;4375;52.486;13.424;2023-02-05T06:09:59;17.00;;;3.90;;
8675;SDS011;4375;52.486;13.424;2023-02-05T06:12:24;15.90;;;3.60;;
8675;SDS011;4375;52.486;13.424;2023-02-05T06:14:50;17.60;;;4.43;;
8675;SDS011;4375;52.486;13.424;2023-02-05T06:17:16;16.50;;;4.00;;
8675;SDS011;4375;52.486;13.424;2023-02-05T06:19:41;17.40;;;3.43;;
8675;SDS011;4375;52.486;13.424;2023-02-05T06:22:07;20.17;;;4.33;;
8675;SDS011;4375;52.486;13.424;2023-02-05T06:24:32;17.23;;;4.40;;
8675;SDS011;4375;52.486;13.424;2023-02-05T06:26:58;16.80;;;3.90;;
8675;SDS011;4375;52.486;13.424;2023-02-05T06:29:24;17.87;;;3.97;;
8675;SDS011;4375;52.486;13.424;2023-02-05T06:31:49;16.87;;;3.77;;
8675;SDS011;4375;52.486;13.424;2023-02-05T06:34:15;18.53;;;4.57;;
8675;SDS011;4375;52.486;13.424;2023-02-05T06:36:41;21.27;;;4.33;;
8675;SDS011;4375;52.486;13.424;2023-02-05T06:39:06;17.30;;;4.50;;
8675;SDS011;4375;52.486;13.424;2023-02-05T06:41:32;20.67;;;4.50;;
8675;SDS011;4375;52.486;13.424;2023-02-05T06:43:58;21.20;;;4.60;;
8675;SDS011;4375;52.486;13.424;2023-02-05T06:46:23;17.37;;;5.20;;
8675;SDS011;4375;52.486;13.424;2023-02-05T06:48:49;19.80;;;4.40;;
8675;SDS011;4375;52.486;13.424;2023-02-05T06:51:14;23.13;;;5.40;;
8675;SDS011;4375;52.486;13.424;2023-02-05T06:53:40;18.57;;;4.43;;
8675;SDS011;4375;52.486;13.424;2023-02-05T06:56:06;18.67;;;4.10;;
8675;SDS011;4375;52.486;13.424;2023-02-05T06:58:31;16.60;;;4.73;;
8675;SDS011;4375;52.486;13.424;2023-02-05T07:00:57;19.50;;;5.27;;
8675;SDS011;4375;52.486;13.424;2023-02-05T07:03:23;17.40;;;5.10;;
8675;SDS011;4375;52.486;13.424;2023-02-05T07:05:48;19.57;;;5.30;;
8675;SDS011;4375;52.486;13.424;2023-02-05T07:08:14;20.50;;;5.60;;
8675;SDS011;4375;52.486;13.424;2023-02-05T07:10:39;19.67;;;4.30;;
8675;SDS011;4375;52.486;13.424;2023-02-05T07:13:05;17.53;;;4.87;;
8675;SDS011;4375;52.486;13.424;2023-02-05T07:15:31;16.83;;;4.20;;
8675;SDS011;4375;52.486;13.424;2023-02-05T07:17:56;20.03;;;5.23;;
8675;SDS011;4375;52.486;13.424;2023-02-05T07:20:22;17.40;;;4.37;;
8675;SDS011;4375;52.486;13.424;2023-02-05T07:22:48;17.70;;;4.80;;
8675;SDS011;4375;52.486;13.424;2023-02-05T07:25:13;22.50;;;6.07;;
8675;SDS011;4375;52.486;13.424;2023-02-05T07:27:39;18.03;;;4.43;;
8675;SDS011;4375;52.486;13.424;2023-02-05T07:30:05;17.67;;;4.30;;
8675;SDS011;4375;52.486;13.424;2023-02-05T07:32:31;17.63;;;4.45;;
8675;SDS011;4375;52.486;13.424;2023-02-05T07:34:56;17.17;;;4.10;;
8675;SDS011;4375;52.486;13.424;2023-02-05T07:37:22;20.63;;;5.20;;
8675;SDS011;4375;52.486;13.424;2023-02-05T07:39:47;15.70;;;3.53;;
8675;SDS011;4375;52.486;13.424;2023-02-05T07:42:13;17.10;;;3.93;;
8675;SDS011;4375;52.486;13.424;2023-02-05T07:44:39;15.33;;;3.97;;
8675;SDS011;4375;52.486;13.424;2023-02-05T07:47:04;20.33;;;4.50;;
8675;SDS011;4375;52.486;13.424;2023-02-05T07:49:30;20.97;;;4.13;;
8675;SDS011;4375;52.486;13.424;2023-02-05T07:51:55;19.60;;;4.10;;
8675;SDS011;4375;52.486;13.424;2023-02-05T07:54:21;17.17;;;4.33;;
8675;SDS011;4375;52.486;13.424;2023-02-05T07:56:47;20.17;;;5.03;;
8675;SDS011;4375;52.486;13.424;2023-02-05T07:59:13;17.90;;;4.07;;
8675;SDS011;4375;52.486;13.424;2023-02-05T08:01:38;20.70;;;4.53;;
8675;SDS011;4375;52.486;13.424;2023-02-05T08:04:04;17.53;;;4.20;;
8675;SDS011;4375;52.486;13.424;2023-02-05T08:06:30;20.43;;;4.67;;
8675;SDS011;4375;52.486;13.424;2023-02-05T08:08:57;25.42;;;5.35;;
8675;SDS011;4375;52.486;13.424;2023-02-05T08:11:22;20.67;;;5.80;;
8675;SDS011;4375;52.486;13.424;2023-02-05T08:13:48;20.40;;;5.20;;
8675;SDS011;4375;52.486;13.424;2023-02-05T08:16:14;16.10;;;4.20;;
8675;SDS011;4375;52.486;13.424;2023-02-05T08:18:40;18.05;;;4.57;;
8675;SDS011;4375;52.486;13.424;2023-02-05T08:21:06;17.90;;;4.73;;
8675;SDS011;4375;52.486;13.424;2023-02-05T08:23:31;17.70;;;4.20;;
8675;SDS011;4375;52.486;13.424;2023-02-05T08:25:57;20.03;;;5.03;;
8675;SDS011;4375;52.486;13.424;2023-02-05T08:28:24;17.50;;;5.05;;
8675;SDS011;4375;52.486;13.424;2023-02-05T08:30:51;19.10;;;5.05;;
8675;SDS011;4375;52.486;13.424;2023-02-05T08:33:17;18.58;;;4.47;;
8675;SDS011;4375;52.486;13.424;2023-02-05T08:35:43;21.33;;;4.90;;
8675;SDS011;4375;52.486;13.424;2023-02-05T08:38:08;19.47;;;4.70;;
8675;SDS011;4375;52.486;13.424;2023-02-05T08:40:34;18.90;;;5.00;;
8675;SDS011;4375;52.486;13.424;2023-02-05T08:43:00;18.30;;;4.70;;
8675;SDS011;4375;52.486;13.424;2023-02-05T08:45:26;18.27;;;4.95;;
8675;SDS011;4375;52.486;13.424;2023-02-05T08:47:53;19.30;;;4.68;;
8675;SDS011;4375;52.486;13.424;2023-02-05T08:50:19;20.65;;;5.68;;
8675;SDS011;4375;52.486;13.424;2023-02-05T08:52:45;21.53;;;5.17;;
8675;SDS011;4375;52.486;13.424;2023-02-05T08:55:11;22.77;;;5.07;;
8675;SDS011;4375;52.486;13.424;2023-02-05T08:57:37;18.70;;;5.03;;
8675;SDS011;4375;52.486;13.424;2023-02-05T09:00:03;19.43;;;4.90;;
8675;SDS011;4375;52.486;13.424;2023-02-05T09:02:30;20.58;;;4.90;;
8675;SDS011;4375;52.486;13.424;2023-02-05T09:04:55;19.97;;;4.80;;
8675;SDS011;4375;52.486;13.424;2023-02-05T09:07:21;18.97;;;4.90;;
8675;SDS011;4375;52.486;13.424;2023-02-05T09:09:47;18.97;;;4.93;;
8675;SDS011;4375;52.486;13.424;2023-02-05T09:12:13;24.00;;;5.10;;
8675;SDS011;4375;52.486;13.424;2023-02-05T09:14:38;17.60;;;4.57;;
8675;SDS011;4375;52.486;13.424;2023-02-05T09:17:05;18.13;;;4.88;;
8675;SDS011;4375;52.486;13.424;2023-02-05T09:19:33;19.35;;;5.65;;
8675;SDS011;4375;52.486;13.424;2023-02-05T09:22:00;18.05;;;5.03;;
8675;SDS011;4375;52.486;13.424;2023-02-05T09:24:26;17.83;;;4.70;;
8675;SDS011;4375;52.486;13.424;2023-02-05T09:26:51;19.80;;;5.67;;
8675;SDS011;4375;52.486;13.424;2023-02-05T09:29:17;21.70;;;5.17;;
8675;SDS011;4375;52.486;13.424;2023-02-05T09:31:43;19.03;;;5.03;;
8675;SDS011;4375;52.486;13.424;2023-02-05T09:34:08;16.97;;;4.70;;
8675;SDS011;4375;52.486;13.424;2023-02-05T09:36:34;23.13;;;5.03;;
8675;SDS011;4375;52.486;13.424;2023-02-05T09:39:00;22.03;;;5.80;;
8675;SDS011;4375;52.486;13.424;2023-02-05T09:41:29;17.00;;;4.80;;
8675;SDS011;4375;52.486;13.424;2023-02-05T09:44:07;18.58;;;5.30;;
8675;SDS011;4375;52.486;13.424;2023-02-05T09:49:54;18.90;;;4.50;;
8675;SDS011;4375;52.486;13.424;2023-02-05T09:52:35;21.15;;;4.13;;
8675;SDS011;4375;52.486;13.424;2023-02-05T09:57:46;17.52;;;4.20;;
8675;SDS011;4375;52.486;13.424;2023-02-05T10:03:08;17.33;;;4.78;;
8675;SDS011;4375;52.486;13.424;2023-02-05T10:08:22;19.58;;;4.90;;
8675;SDS011;4375;52.486;13.424;2023-02-05T10:11:17;19.80;;;4.78;;
8675;SDS011;4375;52.486;13.424;2023-02-05T10:19:46;20.88;;;5.57;;
8675;SDS011;4375;52.486;13.424;2023-02-05T10:28:09;16.83;;;3.92;;
8675;SDS011;4375;52.486;13.424;2023-02-05T10:36:12;16.58;;;4.28;;
8675;SDS011;4375;52.486;13.424;2023-02-05T10:38:43;17.05;;;4.60;;
8675;SDS011;4375;52.486;13.424;2023-02-05T10:43:48;25.48;;;3.67;;
8675;SDS011;4375;52.486;13.424;2023-02-05T10:46:44;15.57;;;3.83;;
8675;SDS011;4375;52.486;13.424;2023-02-05T10:51:47;15.55;;;3.08;;
8675;SDS011;4375;52.486;13.424;2023-02-05T10:54:26;14.60;;;2.37;;
8675;SDS011;4375;52.486;13.424;2023-02-05T10:56:54;16.98;;;3.20;;
8675;SDS011;4375;52.486;13.424;2023-02-05T10:59:24;15.48;;;3.28;;
8675;SDS011;4375;52.486;13.424;2023-02-05T11:01:52;15.00;;;3.03;;
8675;SDS011;4375;52.486;13.424;2023-02-05T11:04:34;16.90;;;3.60;;
8675;SDS011;4375;52.486;13.424;2023-02-05T11:07:12;15.45;;;3.05;;
8675;SDS011;4375;52.486;13.424;2023-02-05T11:09:43;15.45;;;2.92;;
8675;SDS011;4375;52.486;13.424;2023-02-05T11:12:22;19.67;;;3.00;;
8675;SDS011;4375;52.486;13.424;2023-02-05T11:14:57;16.83;;;3.15;;
8675;SDS011;4375;52.486;13.424;2023-02-05T11:17:32;16.50;;;3.25;;
8675;SDS011;4375;52.486;13.424;2023-02-05T11:20:02;17.83;;;3.38;;
8675;SDS011;4375;52.486;13.424;2023-02-05T11:22:34;17.00;;;3.42;;
8675;SDS011;4375;52.486;13.424;2023-02-05T11:25:13;17.42;;;3.03;;
8675;SDS011;4375;52.486;13.424;2023-02-05T11:27:40;19.58;;;2.72;;
8675;SDS011;4375;52.486;13.424;2023-02-05T11:30:37;16.05;;;3.15;;
8675;SDS011;4375;52.486;13.424;2023-02-05T11:35:50;15.80;;;3.00;;
8675;SDS011;4375;52.486;13.424;2023-02-05T11:38:42;17.27;;;3.25;;
8675;SDS011;4375;52.486;13.424;2023-02-05T11:41:13;17.13;;;3.50;;
8675;SDS011;4375;52.486;13.424;2023-02-05T11:43:51;16.63;;;3.20;;
8675;SDS011;4375;52.486;13.424;2023-02-05T11:46:19;16.70;;;2.80;;
8675;SDS011;4375;52.486;13.424;2023-02-05T11:56:58;15.15;;;2.20;;
8675;SDS011;4375;52.486;13.424;2023-02-05T11:59:24;17.83;;;3.13;;
8675;SDS011;4375;52.486;13.424;2023-02-05T12:01:50;14.70;;;2.50;;
8675;SDS011;4375;52.486;13.424;2023-02-05T12:04:16;14.63;;;2.50;;
8675;SDS011;4375;52.486;13.424;2023-02-05T12:09:38;16.58;;;3.10;;
8675;SDS011;4375;52.486;13.424;2023-02-05T12:12:14;15.10;;;2.93;;
8675;SDS011;4375;52.486;13.424;2023-02-05T12:15:00;16.27;;;2.65;;
8675;SDS011;4375;52.486;13.424;2023-02-05T12:17:41;17.20;;;4.15;;
8675;SDS011;4375;52.486;13.424;2023-02-05T12:36:25;16.10;;;3.40;;
8675;SDS011;4375;52.486;13.424;2023-02-05T12:39:20;16.27;;;2.85;;
8675;SDS011;4375;52.486;13.424;2023-02-05T12:49:59;16.08;;;2.92;;
8675;SDS011;4375;52.486;13.424;2023-02-05T12:55:42;22.02;;;3.60;;
8675;SDS011;4375;52.486;13.424;2023-02-05T12:58:19;17.65;;;3.13;;
8675;SDS011;4375;52.486;13.424;2023-02-05T13:03:26;16.08;;;3.63;;
8675;SDS011;4375;52.486;13.424;2023-02-05T13:06:20;16.70;;;3.38;;
8675;SDS011;4375;52.486;13.424;2023-02-05T13:11:40;17.63;;;3.55;;
8675;SDS011;4375;52.486;13.424;2023-02-05T13:14:15;15.70;;;3.40;;
8675;SDS011;4375;52.486;13.424;2023-02-05T13:16:51;17.17;;;4.50;;
8675;SDS011;4375;52.486;13.424;2023-02-05T13:19:37;17.70;;;3.85;;
8675;SDS011;4375;52.486;13.424;2023-02-05T13:22:10;21.38;;;4.22;;
8675;SDS011;4375;52.486;13.424;2023-02-05T13:25:02;18.75;;;3.95;;
8675;SDS011;4375;52.486;13.424;2023-02-05T13:27:57;17.35;;;3.20;;
8675;SDS011;4375;52.486;13.424;2023-02-05T13:30:47;16.02;;;3.35;;
8675;SDS011;4375;52.486;13.424;2023-02-05T13:33:18;20.38;;;3.60;;
8675;SDS011;4375;52.486;13.424;2023-02-05T13:41:23;15.85;;;3.45;;
8675;SDS011;4375;52.486;13.424;2023-02-05T13:46:44;17.80;;;3.67;;
8675;SDS011;4375;52.486;13.424;2023-02-05T13:54:52;15.20;;;3.20;;
8675;SDS011;4375;52.486;13.424;2023-02-05T14:00:49;16.50;;;3.25;;
8675;SDS011;4375;52.486;13.424;2023-02-05T14:03:31;18.33;;;3.72;;
8675;SDS011;4375;52.486;13.424;2023-02-05T14:06:12;18.23;;;2.92;;
8675;SDS011;4375;52.486;13.424;2023-02-05T14:08:41;15.35;;;3.05;;
8675;SDS011;4375;52.486;13.424;2023-02-05T14:11:07;19.08;;;3.25;;
8675;SDS011;4375;52.486;13.424;2023-02-05T14:13:34;15.50;;;2.78;;
8675;SDS011;4375;52.486;13.424;2023-02-05T14:23:57;16.83;;;3.28;;
8675;SDS011;4375;52.486;13.424;2023-02-05T14:26:46;16.60;;;4.05;;
8675;SDS011;4375;52.486;13.424;2023-02-05T14:37:48;15.63;;;2.75;;
8675;SDS011;4375;52.486;13.424;2023-02-05T14:40:22;17.08;;;3.33;;
8675;SDS011;4375;52.486;13.424;2023-02-05T14:42:56;16.63;;;3.20;;
8675;SDS011;4375;52.486;13.424;2023-02-05T14:45:24;17.55;;;3.40;;
8675;SDS011;4375;52.486;13.424;2023-02-05T14:47:54;17.75;;;3.10;;
8675;SDS011;4375;52.486;13.424;2023-02-05T14:50:22;16.75;;;2.90;;
8675;SDS011;4375;52.486;13.424;2023-02-05T14:53:00;19.23;;;3.35;;
8675;SDS011;4375;52.486;13.424;2023-02-05T14:55:38;18.92;;;2.97;;
8675;SDS011;4375;52.486;13.424;2023-02-05T14:58:08;17.45;;;3.28;;
8675;SDS011;4375;52.486;13.424;2023-02-05T15:00:48;15.35;;;3.00;;
8675;SDS011;4375;52.486;13.424;2023-02-05T15:10:43;16.02;;;2.75;;
8675;SDS011;4375;52.486;13.424;2023-02-05T15:13:18;14.40;;;2.45;;
8675;SDS011;4375;52.486;13.424;2023-02-05T15:18:48;14.75;;;2.75;;
8675;SDS011;4375;52.486;13.424;2023-02-05T15:24:30;15.07;;;2.65;;
8675;SDS011;4375;52.486;13.424;2023-02-05T15:31:53;15.70;;;2.95;;
8675;SDS011;4375;52.486;13.424;2023-02-05T15:37:20;15.98;;;3.00;;
8675;SDS011;4375;52.486;13.424;2023-02-05T15:39:55;14.50;;;2.60;;
8675;SDS011;4375;52.486;13.424;2023-02-05T15:44:55;18.55;;;3.28;;
8675;SDS011;4375;52.486;13.424;2023-02-05T15:47:21;16.53;;;3.20;;
8675;SDS011;4375;52.486;13.424;2023-02-05T15:49:49;16.98;;;3.60;;
8675;SDS011;4375;52.486;13.424;2023-02-05T15:52:21;18.55;;;3.78;;
8675;SDS011;4375;52.486;13.424;2023-02-05T15:54:53;16.30;;;3.92;;
8675;SDS011;4375;52.486;13.424;2023-02-05T15:57:23;16.88;;;3.30;;
8675;SDS011;4375;52.486;13.424;2023-02-05T15:59:52;17.95;;;3.30;;
8675;SDS011;4375;52.486;13.424;2023-02-05T16:02:20;17.00;;;3.83;;
8675;SDS011;4375;52.486;13.424;2023-02-05T16:04:52;16.17;;;3.80;;
8675;SDS011;4375;52.486;13.424;2023-02-05T16:07:20;20.70;;;3.45;;
8675;SDS011;4375;52.486;13.424;2023-02-05T16:09:53;18.48;;;3.90;;
8675;SDS011;4375;52.486;13.424;2023-02-05T16:12:22;15.65;;;2.97;;
8675;SDS011;4375;52.486;13.424;2023-02-05T16:15:21;18.20;;;3.57;;
8675;SDS011;4375;52.486;13.424;2023-02-05T16:17:44;18.08;;;2.90;;
8675;SDS011;4375;52.486;13.424;2023-02-05T16:20:17;15.93;;;2.95;;
8675;SDS011;4375;52.486;13.424;2023-02-05T16:22:51;18.92;;;3.13;;
8675;SDS011;4375;52.486;13.424;2023-02-05T16:25:40;20.45;;;4.03;;
8675;SDS011;4375;52.486;13.424;2023-02-05T16:28:36;17.25;;;3.78;;
8675;SDS011;4375;52.486;13.424;2023-02-05T16:31:00;18.25;;;4.13;;
8675;SDS011;4375;52.486;13.424;2023-02-05T16:33:36;19.83;;;4.70;;
8675;SDS011;4375;52.486;13.424;2023-02-05T16:36:14;19.25;;;5.10;;
8675;SDS011;4375;52.486;13.424;2023-02-05T16:38:49;26.13;;;5.38;;
8675;SDS011;4375;52.486;13.424;2023-02-05T16:41:18;20.17;;;4.47;;
8675;SDS011;4375;52.486;13.424;2023-02-05T16:43:49;19.40;;;5.28;;
8675;SDS011;4375;52.486;13.424;2023-02-05T16:46:24;19.52;;;4.85;;
8675;SDS011;4375;52.486;13.424;2023-02-05T16:48:54;17.73;;;4.10;;
8675;SDS011;4375;52.486;13.424;2023-02-05T16:59:55;22.13;;;5.60;;
8675;SDS011;4375;52.486;13.424;2023-02-05T17:02:25;20.95;;;6.25;;
8675;SDS011;4375;52.486;13.424;2023-02-05T17:04:59;20.67;;;6.10;;
8675;SDS011;4375;52.486;13.424;2023-02-05T17:07:31;22.30;;;5.82;;
8675;SDS011;4375;52.486;13.424;2023-02-05T17:10:17;20.40;;;5.15;;
8675;SDS011;4375;52.486;13.424;2023-02-05T17:12:51;22.25;;;5.80;;
8675;SDS011;4375;52.486;13.424;2023-02-05T17:17:49;22.90;;;6.47;;
8675;SDS011;4375;52.486;13.424;2023-02-05T17:20:23;20.50;;;6.70;;
8675;SDS011;4375;52.486;13.424;2023-02-05T17:25:51;24.77;;;7.30;;
8675;SDS011;4375;52.486;13.424;2023-02-05T17:28:22;22.15;;;7.00;;
8675;SDS011;4375;52.486;13.424;2023-02-05T17:30:50;28.35;;;8.18;;
8675;SDS011;4375;52.486;13.424;2023-02-05T17:33:21;29.25;;;7.45;;
8675;SDS011;4375;52.486;13.424;2023-02-05T17:35:52;26.20;;;8.82;;
8675;SDS011;4375;52.486;13.424;2023-02-05T17:38:18;24.40;;;7.47;;
8675;SDS011;4375;52.486;13.424;2023-02-05T17:40:50;29.25;;;8.43;;
8675;SDS011;4375;52.486;13.424;2023-02-05T17:43:36;25.67;;;8.20;;
8675;SDS011;4375;52.486;13.424;2023-02-05T17:46:03;26.13;;;7.70;;
8675;SDS011;4375;52.486;13.424;2023-02-05T17:48:33;23.88;;;7.50;;
8675;SDS011;4375;52.486;13.424;2023-02-05T17:50:59;24.40;;;7.70;;
8675;SDS011;4375;52.486;13.424;2023-02-05T17:53:26;22.05;;;6.65;;
8675;SDS011;4375;52.486;13.424;2023-02-05T17:55:53;23.60;;;8.48;;
8675;SDS011;4375;52.486;13.424;2023-02-05T17:58:18;24.40;;;7.77;;
8675;SDS011;4375;52.486;13.424;2023-02-05T18:00:44;27.45;;;7.93;;
8675;SDS011;4375;52.486;13.424;2023-02-05T18:03:10;23.40;;;7.73;;
8675;SDS011;4375;52.486;13.424;2023-02-05T18:05:36;28.50;;;8.90;;
8675;SDS011;4375;52.486;13.424;2023-02-05T18:08:01;29.90;;;9.77;;